Time;durP1;ratioP1;P1;durP2;ratioP2;P2;SDS_P1;SDS_P2;PMS_P1;PMS_P2;Temp;Humidity;BMP_temperature;BMP_pressure;BME280_temperature;BME280_humidity;BME280_pressure;Samples;Min_cycle;Max_cycle;Signal;HPM_P1;HPM_P2
2023/05/11 00:01:58;;;;;;;9.40;8.50;;;;;;;;;;5044135;28;20243;-52
2023/05/11 00:04:24;;;;;;;9.40;8.48;;;;;;;;;;5060716;28;20235;-52
2023/05/11 00:06:51;;;;;;;10.63;8.82;;;;;;;;;;5065434;28;20231;-52
2023/05/11 00:09:17;;;;;;;12.02;8.65;;;;;;;;;;5057902;28;20314;-51
2023/05/11 00:11:44;;;;;;;8.65;7.85;;;;;;;;;;5064841;28;20269;-52
2023/05/11 00:14:10;;;;;;;8.82;8.07;;;;;;;;;;5066038;28;20230;-52
2023/05/11 00:16:37;;;;;;;9.43;8.52;;;;;;;;;;5058184;28;20258;-52
2023/05/11 00:19:05;;;;;;;9.70;8.63;;;;;;;;;;5052650;28;20239;-51
2023/05/11 00:21:32;;;;;;;9.00;7.95;;;;;;;;;;5060055;28;20322;-51
2023/05/11 00:23:58;;;;;;;9.60;8.32;;;;;;;;;;5064748;28;20242;-51
2023/05/11 00:26:25;;;;;;;9.98;8.98;;;;;;;;;;5072438;28;20262;-51
2023/05/11 00:28:52;;;;;;;9.43;8.52;;;;;;;;;;5060598;28;20789;-52
2023/05/11 00:31:18;;;;;;;9.15;8.35;;;;;;;;;;5061265;28;20233;-53
2023/05/11 00:33:45;;;;;;;8.68;7.85;;;;;;;;;;5057929;28;20236;-50
2023/05/11 00:36:13;;;;;;;8.95;8.05;;;;;;;;;;5063612;28;20541;-50
2023/05/11 00:38:40;;;;;;;8.93;8.13;;;;;;;;;;5063426;28;20781;-51
2023/05/11 00:41:07;;;;;;;9.40;8.60;;;;;;;;;;5057029;28;20228;-50
2023/05/11 00:43:33;;;;;;;11.48;10.30;;;;;;;;;;5064063;28;20246;-51
2023/05/11 00:46:00;;;;;;;9.15;8.35;;;;;;;;;;5063826;28;20231;-52
2023/05/11 00:48:27;;;;;;;12.27;8.65;;;;;;;;;;5052254;28;20227;-51
2023/05/11 00:50:53;;;;;;;8.95;8.10;;;;;;;;;;5064311;28;20332;-52
2023/05/11 00:53:21;;;;;;;9.50;8.60;;;;;;;;;;5050010;28;20235;-53
2023/05/11 00:55:48;;;;;;;9.10;8.00;;;;;;;;;;5062124;28;20310;-51
2023/05/11 00:58:15;;;;;;;10.65;9.68;;;;;;;;;;5063472;28;20682;-52
2023/05/11 01:00:43;;;;;;;10.35;8.07;;;;;;;;;;5065024;28;20319;-52
2023/05/11 01:03:10;;;;;;;10.02;9.07;;;;;;;;;;5063097;28;20254;-49
2023/05/11 01:05:42;;;;;;;10.15;9.25;;;;;;;;;;5050291;28;20238;-52
2023/05/11 01:08:12;;;;;;;9.45;8.55;;;;;;;;;;5057396;28;20257;-52
2023/05/11 01:10:42;;;;;;;9.60;8.32;;;;;;;;;;5064604;28;20245;-53
2023/05/11 01:13:13;;;;;;;9.70;8.70;;;;;;;;;;5059130;28;20280;-52
2023/05/11 01:15:44;;;;;;;9.00;8.10;;;;;;;;;;5065575;28;20231;-52
2023/05/11 01:18:14;;;;;;;10.75;8.90;;;;;;;;;;5058429;28;20305;-50
2023/05/11 01:20:42;;;;;;;9.65;8.73;;;;;;;;;;5060663;28;20907;-51
2023/05/11 01:23:13;;;;;;;9.65;8.75;;;;;;;;;;5059656;28;20349;-56
2023/05/11 01:26:08;;;;;;;9.35;8.02;;;;;;;;;;5070486;28;20254;-52
2023/05/11 01:28:45;;;;;;;9.32;8.20;;;;;;;;;;5063123;28;20748;-50
2023/05/11 01:31:15;;;;;;;10.07;9.07;;;;;;;;;;5057512;28;20893;-53
2023/05/11 01:33:47;;;;;;;8.50;7.75;;;;;;;;;;5051555;28;20729;-53
2023/05/11 01:36:15;;;;;;;9.75;8.57;;;;;;;;;;5053876;28;20270;-51
2023/05/11 01:38:46;;;;;;;10.02;8.63;;;;;;;;;;5056045;28;20243;-51
2023/05/11 01:41:14;;;;;;;7.93;7.22;;;;;;;;;;5057040;28;20241;-51
2023/05/11 01:43:42;;;;;;;9.75;8.18;;;;;;;;;;5067589;28;20227;-52
2023/05/11 01:46:10;;;;;;;9.27;8.40;;;;;;;;;;5067444;28;20255;-54
2023/05/11 01:48:42;;;;;;;9.48;8.68;;;;;;;;;;5064709;28;20335;-51
2023/05/11 01:51:09;;;;;;;9.50;8.65;;;;;;;;;;5062148;28;20306;-52
2023/05/11 01:53:37;;;;;;;10.48;8.63;;;;;;;;;;5059740;28;20239;-52
2023/05/11 01:56:05;;;;;;;9.70;8.70;;;;;;;;;;5060540;28;20777;-51
2023/05/11 01:58:36;;;;;;;11.15;10.05;;;;;;;;;;5058726;28;20733;-53
2023/05/11 02:01:03;;;;;;;11.27;10.18;;;;;;;;;;5061910;28;20231;-51
2023/05/11 02:03:31;;;;;;;9.75;8.85;;;;;;;;;;5064654;28;20328;-52
2023/05/11 02:06:00;;;;;;;16.15;9.63;;;;;;;;;;5062427;28;20227;-51
2023/05/11 02:08:27;;;;;;;13.75;12.35;;;;;;;;;;5064045;28;20701;-51
2023/05/11 02:10:54;;;;;;;13.32;10.98;;;;;;;;;;5061077;28;20231;-51
2023/05/11 02:13:21;;;;;;;12.15;10.98;;;;;;;;;;5067448;28;20255;-52
2023/05/11 02:15:51;;;;;;;12.50;11.32;;;;;;;;;;5072087;28;20222;-52
2023/05/11 02:18:18;;;;;;;11.50;10.40;;;;;;;;;;5070294;28;20250;-51
2023/05/11 02:20:46;;;;;;;11.75;10.55;;;;;;;;;;5072870;28;20356;-52
2023/05/11 02:23:14;;;;;;;13.82;11.00;;;;;;;;;;5076578;28;20299;-55
2023/05/11 02:25:41;;;;;;;10.00;9.02;;;;;;;;;;5078226;28;20234;-56
2023/05/11 02:28:08;;;;;;;11.75;10.57;;;;;;;;;;5075845;28;20730;-51
2023/05/11 02:30:38;;;;;;;10.48;9.57;;;;;;;;;;5071615;28;20227;-52
2023/05/11 02:33:06;;;;;;;11.35;10.25;;;;;;;;;;5059402;28;20246;-52
2023/05/11 02:35:33;;;;;;;10.82;9.82;;;;;;;;;;5063028;28;20254;-52
2023/05/11 02:38:01;;;;;;;10.65;9.70;;;;;;;;;;5063044;28;20234;-51
2023/05/11 02:40:30;;;;;;;11.68;10.57;;;;;;;;;;5059368;28;20224;-54
2023/05/11 02:42:58;;;;;;;10.07;9.00;;;;;;;;;;5060896;28;20242;-51
2023/05/11 02:45:28;;;;;;;10.32;9.32;;;;;;;;;;5060454;28;20235;-51
2023/05/11 02:47:56;;;;;;;12.68;11.43;;;;;;;;;;5053360;28;20322;-52
2023/05/11 02:50:24;;;;;;;12.05;10.90;;;;;;;;;;5062956;28;20224;-50
2023/05/11 02:52:53;;;;;;;10.90;9.90;;;;;;;;;;5056595;28;20318;-51
2023/05/11 02:55:21;;;;;;;9.57;8.60;;;;;;;;;;5063972;28;20227;-50
2023/05/11 02:57:49;;;;;;;10.25;9.25;;;;;;;;;;5062122;27;20249;-51
2023/05/11 03:00:16;;;;;;;10.68;9.57;;;;;;;;;;5060924;28;20723;-51
2023/05/11 03:02:43;;;;;;;9.85;8.93;;;;;;;;;;5062639;28;20276;-51
2023/05/11 03:05:09;;;;;;;9.50;8.65;;;;;;;;;;5059908;28;20273;-53
2023/05/11 03:07:36;;;;;;;8.90;8.10;;;;;;;;;;5050106;28;20310;-51
2023/05/11 03:10:03;;;;;;;9.52;8.63;;;;;;;;;;5064052;28;20673;-52
2023/05/11 03:12:32;;;;;;;8.85;8.00;;;;;;;;;;5058105;28;20741;-50
2023/05/11 03:15:01;;;;;;;8.75;7.97;;;;;;;;;;5053429;28;20641;-51
2023/05/11 03:17:28;;;;;;;8.10;7.40;;;;;;;;;;5056666;28;20863;-51
2023/05/11 03:19:55;;;;;;;8.70;8.00;;;;;;;;;;5050596;28;20235;-52
2023/05/11 03:22:22;;;;;;;8.05;7.35;;;;;;;;;;5052529;28;20235;-52
2023/05/11 03:24:49;;;;;;;6.35;5.85;;;;;;;;;;5083867;28;20596;-53
2023/05/11 03:27:16;;;;;;;8.05;7.38;;;;;;;;;;5065645;28;20234;-51
2023/05/11 03:29:44;;;;;;;8.27;7.47;;;;;;;;;;5055755;28;20243;-54
2023/05/11 03:32:12;;;;;;;8.02;7.20;;;;;;;;;;5066910;28;20239;-51
2023/05/11 03:34:38;;;;;;;7.47;6.88;;;;;;;;;;5066331;28;20239;-52
2023/05/11 03:37:05;;;;;;;9.05;6.70;;;;;;;;;;5061742;28;20302;-52
2023/05/11 03:39:33;;;;;;;8.65;7.50;;;;;;;;;;5060605;28;20239;-52
2023/05/11 03:42:01;;;;;;;8.02;7.22;;;;;;;;;;5056648;28;20390;-52
2023/05/11 03:44:28;;;;;;;8.63;5.93;;;;;;;;;;5057769;28;20259;-54
2023/05/11 03:46:55;;;;;;;12.98;7.35;;;;;;;;;;5060320;28;20223;-52
2023/05/11 03:49:23;;;;;;;11.13;8.10;;;;;;;;;;5065485;28;20235;-52
2023/05/11 03:51:50;;;;;;;7.20;6.60;;;;;;;;;;5061270;28;20259;-51
2023/05/11 03:54:16;;;;;;;8.10;7.40;;;;;;;;;;5054686;28;20592;-51
2023/05/11 03:56:43;;;;;;;11.80;7.13;;;;;;;;;;5057572;28;21027;-52
2023/05/11 03:59:14;;;;;;;10.80;7.82;;;;;;;;;;5057700;28;20264;-51
2023/05/11 04:01:42;;;;;;;8.90;7.82;;;;;;;;;;5065862;28;20243;-53
2023/05/11 04:04:08;;;;;;;7.43;6.63;;;;;;;;;;5065017;28;20896;-53
2023/05/11 04:06:36;;;;;;;8.25;7.38;;;;;;;;;;5063937;28;20322;-51
2023/05/11 04:09:03;;;;;;;8.10;7.40;;;;;;;;;;5065871;27;20231;-52
2023/05/11 04:11:30;;;;;;;6.55;5.95;;;;;;;;;;5063187;28;20263;-52
2023/05/11 04:13:56;;;;;;;7.53;6.93;;;;;;;;;;5064201;28;20296;-51
2023/05/11 04:16:23;;;;;;;7.43;6.75;;;;;;;;;;5069226;28;20238;-50
2023/05/11 04:18:49;;;;;;;7.30;6.68;;;;;;;;;;5064936;28;20231;-51
2023/05/11 04:21:16;;;;;;;7.28;6.68;;;;;;;;;;5049993;28;20232;-50
2023/05/11 04:23:44;;;;;;;7.70;7.00;;;;;;;;;;5058788;28;20242;-52
2023/05/11 04:26:11;;;;;;;9.00;7.10;;;;;;;;;;5053561;28;20278;-52
2023/05/11 04:28:37;;;;;;;7.53;6.93;;;;;;;;;;5064273;28;20235;-50
2023/05/11 04:31:03;;;;;;;7.75;6.97;;;;;;;;;;5061393;28;20235;-53
2023/05/11 04:33:30;;;;;;;7.18;6.47;;;;;;;;;;5068104;28;20255;-51
2023/05/11 04:35:57;;;;;;;8.60;7.13;;;;;;;;;;5057361;28;20232;-51
2023/05/11 04:38:26;;;;;;;6.75;6.15;;;;;;;;;;5062916;28;20266;-52
2023/05/11 04:40:54;;;;;;;7.30;6.53;;;;;;;;;;5063489;28;20231;-52
2023/05/11 04:43:21;;;;;;;7.85;6.82;;;;;;;;;;5061499;27;20231;-51
2023/05/11 04:45:48;;;;;;;8.20;7.53;;;;;;;;;;5056273;27;20354;-51
2023/05/11 04:48:15;;;;;;;8.80;6.72;;;;;;;;;;5060787;27;20255;-54
2023/05/11 04:50:42;;;;;;;8.50;6.53;;;;;;;;;;5058571;28;20617;-52
2023/05/11 04:53:08;;;;;;;6.93;6.32;;;;;;;;;;5051223;28;20766;-51
2023/05/11 04:55:35;;;;;;;7.50;6.80;;;;;;;;;;5062464;28;20231;-51
2023/05/11 04:58:03;;;;;;;7.47;6.78;;;;;;;;;;5055299;28;20242;-51
2023/05/11 05:00:29;;;;;;;8.40;6.75;;;;;;;;;;5062339;28;20239;-58
2023/05/11 05:02:56;;;;;;;7.50;6.55;;;;;;;;;;5059803;28;20244;-51
2023/05/11 05:05:22;;;;;;;7.50;6.90;;;;;;;;;;5058105;28;20288;-52
2023/05/11 05:07:49;;;;;;;6.32;5.82;;;;;;;;;;5060589;28;20318;-52
2023/05/11 05:10:16;;;;;;;7.85;6.93;;;;;;;;;;5058389;28;20239;-52
2023/05/11 05:12:42;;;;;;;7.75;7.03;;;;;;;;;;5059331;28;20322;-53
2023/05/11 05:15:11;;;;;;;9.20;7.35;;;;;;;;;;5061080;28;20247;-52
2023/05/11 05:17:38;;;;;;;7.80;7.10;;;;;;;;;;5057332;28;20240;-50
2023/05/11 05:20:05;;;;;;;7.13;6.38;;;;;;;;;;5056010;28;20235;-52
2023/05/11 05:22:32;;;;;;;11.23;6.80;;;;;;;;;;5058457;28;20293;-51
2023/05/11 05:24:59;;;;;;;7.50;6.78;;;;;;;;;;5058665;28;22272;-52
2023/05/11 05:27:26;;;;;;;7.20;6.60;;;;;;;;;;5057174;28;20235;-50
2023/05/11 05:29:52;;;;;;;6.85;6.20;;;;;;;;;;5063187;28;20231;-51
2023/05/11 05:32:20;;;;;;;7.50;6.82;;;;;;;;;;5044939;28;20236;-52
2023/05/11 05:34:47;;;;;;;6.07;5.57;;;;;;;;;;5059477;28;20890;-51
2023/05/11 05:37:13;;;;;;;6.90;6.38;;;;;;;;;;5061428;28;20227;-50
2023/05/11 05:39:40;;;;;;;9.60;6.45;;;;;;;;;;5060632;28;20333;-52
2023/05/11 05:42:07;;;;;;;6.35;5.80;;;;;;;;;;5053888;28;20231;-52
2023/05/11 05:44:33;;;;;;;6.82;6.00;;;;;;;;;;5054408;28;20230;-53
2023/05/11 05:47:00;;;;;;;6.88;6.20;;;;;;;;;;5056719;28;20767;-51
2023/05/11 05:49:27;;;;;;;7.22;6.63;;;;;;;;;;5057924;28;20235;-52
2023/05/11 05:51:54;;;;;;;7.95;6.28;;;;;;;;;;5056219;28;20235;-51
2023/05/11 05:54:21;;;;;;;7.55;6.18;;;;;;;;;;5065168;27;20629;-52
2023/05/11 05:56:49;;;;;;;6.72;6.07;;;;;;;;;;5059328;27;20242;-52
2023/05/11 05:59:17;;;;;;;7.00;6.40;;;;;;;;;;5063162;27;20605;-52
2023/05/11 06:01:45;;;;;;;8.45;7.18;;;;;;;;;;5054207;28;20228;-52
2023/05/11 06:04:12;;;;;;;10.75;6.72;;;;;;;;;;5043460;28;20882;-52
2023/05/11 06:06:40;;;;;;;7.80;6.13;;;;;;;;;;5054678;28;20239;-52
2023/05/11 06:09:06;;;;;;;8.07;7.15;;;;;;;;;;5052307;28;20241;-53
2023/05/11 06:11:33;;;;;;;7.45;6.45;;;;;;;;;;5051033;28;20228;-52
2023/05/11 06:14:00;;;;;;;7.22;6.35;;;;;;;;;;5035774;28;20232;-53
2023/05/11 06:16:26;;;;;;;11.35;7.10;;;;;;;;;;5045426;28;20730;-51
2023/05/11 06:18:53;;;;;;;8.30;6.15;;;;;;;;;;5056732;28;20238;-51
2023/05/11 06:21:20;;;;;;;6.60;5.82;;;;;;;;;;5057182;28;20906;-50
2023/05/11 06:23:48;;;;;;;8.85;6.38;;;;;;;;;;5054062;28;20234;-52
2023/05/11 06:26:15;;;;;;;7.32;6.00;;;;;;;;;;5060721;28;20227;-53
2023/05/11 06:28:41;;;;;;;6.68;5.72;;;;;;;;;;5055721;28;20227;-51
2023/05/11 06:31:08;;;;;;;9.77;6.25;;;;;;;;;;5058495;28;20231;-51
2023/05/11 06:33:35;;;;;;;7.25;6.50;;;;;;;;;;5058628;28;20255;-57
2023/05/11 06:36:03;;;;;;;8.43;6.22;;;;;;;;;;5063966;28;20227;-51
2023/05/11 06:38:30;;;;;;;6.22;5.65;;;;;;;;;;5068271;28;20309;-53
2023/05/11 06:40:58;;;;;;;7.72;5.70;;;;;;;;;;5065272;28;20242;-51
2023/05/11 06:43:25;;;;;;;5.75;5.25;;;;;;;;;;5064905;28;20251;-52
2023/05/11 06:45:52;;;;;;;5.80;5.28;;;;;;;;;;5055960;28;20718;-52
2023/05/11 06:48:18;;;;;;;5.70;5.05;;;;;;;;;;5057276;28;20231;-56
2023/05/11 06:50:45;;;;;;;5.85;4.72;;;;;;;;;;5055257;28;20243;-53
2023/05/11 06:53:11;;;;;;;5.00;4.60;;;;;;;;;;5062480;28;20321;-52
2023/05/11 06:55:38;;;;;;;5.10;4.60;;;;;;;;;;5057226;28;20235;-51
2023/05/11 06:58:06;;;;;;;4.75;4.35;;;;;;;;;;5064198;28;20235;-50
2023/05/11 07:00:33;;;;;;;7.95;4.93;;;;;;;;;;5058983;28;20741;-51
2023/05/11 07:03:00;;;;;;;5.43;4.32;;;;;;;;;;5056480;28;20236;-52
2023/05/11 07:05:27;;;;;;;4.90;4.40;;;;;;;;;;5062507;28;20318;-51
2023/05/11 07:07:53;;;;;;;5.00;4.35;;;;;;;;;;5062785;28;20321;-51
2023/05/11 07:10:20;;;;;;;5.82;4.80;;;;;;;;;;5050779;28;20235;-51
2023/05/11 07:12:46;;;;;;;4.25;3.78;;;;;;;;;;5059091;28;20270;-51
2023/05/11 07:15:14;;;;;;;4.13;3.72;;;;;;;;;;5056721;28;20261;-51
2023/05/11 07:17:41;;;;;;;4.22;3.67;;;;;;;;;;5064229;28;20327;-51
2023/05/11 07:20:08;;;;;;;4.80;4.38;;;;;;;;;;5050672;28;20281;-52
2023/05/11 07:22:34;;;;;;;5.53;3.75;;;;;;;;;;5057854;28;20232;-53
2023/05/11 07:25:01;;;;;;;6.15;3.83;;;;;;;;;;5063020;27;20238;-53
2023/05/11 07:27:27;;;;;;;3.90;3.60;;;;;;;;;;5070650;27;20265;-52
2023/05/11 07:29:54;;;;;;;4.43;4.03;;;;;;;;;;5053527;28;20232;-52
2023/05/11 07:32:22;;;;;;;4.30;3.88;;;;;;;;;;5058211;27;20698;-53
2023/05/11 07:34:48;;;;;;;5.07;3.70;;;;;;;;;;5061926;28;20235;-51
2023/05/11 07:37:15;;;;;;;3.72;3.42;;;;;;;;;;5063608;28;20365;-52
2023/05/11 07:39:42;;;;;;;4.15;3.38;;;;;;;;;;5062688;28;20240;-51
2023/05/11 07:42:08;;;;;;;5.35;4.13;;;;;;;;;;5064606;28;20732;-53
2023/05/11 07:44:34;;;;;;;3.80;3.13;;;;;;;;;;5059337;28;20227;-52
2023/05/11 07:47:01;;;;;;;4.53;3.50;;;;;;;;;;5058267;28;20288;-51
2023/05/11 07:49:29;;;;;;;3.55;3.25;;;;;;;;;;5076598;28;20238;-51
2023/05/11 07:51:55;;;;;;;3.88;3.55;;;;;;;;;;5071355;28;20322;-50
2023/05/11 07:54:21;;;;;;;5.35;3.40;;;;;;;;;;5055983;28;20259;-54
2023/05/11 07:56:48;;;;;;;4.05;3.65;;;;;;;;;;5063186;28;20931;-50
2023/05/11 07:59:14;;;;;;;9.60;3.75;;;;;;;;;;5061790;28;20234;-52
2023/05/11 08:01:41;;;;;;;3.53;3.15;;;;;;;;;;5058765;28;20249;-51
2023/05/11 08:04:07;;;;;;;4.45;3.20;;;;;;;;;;5055864;28;20748;-51
2023/05/11 08:06:35;;;;;;;3.45;3.17;;;;;;;;;;5048800;28;20235;-51
2023/05/11 08:09:01;;;;;;;3.50;3.20;;;;;;;;;;5060379;28;20231;-52
2023/05/11 08:11:28;;;;;;;3.80;3.40;;;;;;;;;;5054682;28;20726;-51
2023/05/11 08:13:54;;;;;;;4.63;3.60;;;;;;;;;;5063056;28;20716;-51
2023/05/11 08:16:21;;;;;;;5.07;3.25;;;;;;;;;;5058412;28;20746;-50
2023/05/11 08:18:47;;;;;;;4.85;3.30;;;;;;;;;;5059061;28;20289;-52
2023/05/11 08:21:14;;;;;;;6.80;3.30;;;;;;;;;;5057395;28;20227;-52
2023/05/11 08:23:42;;;;;;;3.60;3.28;;;;;;;;;;5050531;28;20243;-51
2023/05/11 08:26:09;;;;;;;4.15;3.30;;;;;;;;;;5053439;28;20766;-50
2023/05/11 08:28:36;;;;;;;6.18;3.33;;;;;;;;;;5058040;28;20755;-53
2023/05/11 08:31:02;;;;;;;4.32;3.30;;;;;;;;;;5057830;28;20325;-52
2023/05/11 08:33:28;;;;;;;5.35;3.28;;;;;;;;;;5058979;28;20240;-52
2023/05/11 08:35:55;;;;;;;3.58;3.28;;;;;;;;;;5057721;28;20258;-51
2023/05/11 08:38:21;;;;;;;3.47;2.90;;;;;;;;;;5064808;28;20238;-51
2023/05/11 08:40:50;;;;;;;6.65;2.97;;;;;;;;;;5061210;28;20247;-52
2023/05/11 08:43:18;;;;;;;3.67;2.55;;;;;;;;;;5063758;28;20490;-52
2023/05/11 08:45:46;;;;;;;8.85;3.05;;;;;;;;;;5058568;28;20227;-54
2023/05/11 08:48:14;;;;;;;3.20;2.90;;;;;;;;;;5060037;28;20230;-52
2023/05/11 08:50:40;;;;;;;3.15;2.95;;;;;;;;;;5061392;28;20937;-52
2023/05/11 08:53:07;;;;;;;3.38;3.10;;;;;;;;;;5057123;28;20235;-51
2023/05/11 08:55:34;;;;;;;3.88;3.58;;;;;;;;;;5049266;28;20247;-53
2023/05/11 08:58:02;;;;;;;4.43;3.40;;;;;;;;;;5056757;28;20254;-54
2023/05/11 09:00:30;;;;;;;2.78;2.58;;;;;;;;;;5058954;28;20254;-52
2023/05/11 09:02:57;;;;;;;3.75;3.00;;;;;;;;;;5064124;28;20800;-51
2023/05/11 09:05:24;;;;;;;6.30;2.67;;;;;;;;;;5058973;28;20235;-50
2023/05/11 09:07:52;;;;;;;2.95;2.65;;;;;;;;;;5056501;28;20231;-52
2023/05/11 09:10:19;;;;;;;3.08;2.88;;;;;;;;;;5061298;28;20242;-51
2023/05/11 09:12:46;;;;;;;3.15;2.85;;;;;;;;;;5067756;28;20235;-51
2023/05/11 09:15:13;;;;;;;2.97;2.78;;;;;;;;;;5063725;28;20262;-55
2023/05/11 09:17:40;;;;;;;3.45;3.05;;;;;;;;;;5069745;28;20334;-52
2023/05/11 09:20:08;;;;;;;3.83;3.53;;;;;;;;;;5061230;28;20235;-50
2023/05/11 09:22:35;;;;;;;2.55;2.35;;;;;;;;;;5053604;28;20256;-51
2023/05/11 09:25:02;;;;;;;4.55;2.60;;;;;;;;;;5061492;28;20670;-51
2023/05/11 09:27:29;;;;;;;3.65;2.78;;;;;;;;;;5057000;28;20238;-51
2023/05/11 09:29:55;;;;;;;2.88;2.53;;;;;;;;;;5055091;28;20616;-51
2023/05/11 09:32:23;;;;;;;4.85;2.78;;;;;;;;;;5050369;28;20270;-51
2023/05/11 09:34:50;;;;;;;3.55;2.53;;;;;;;;;;5052322;28;20325;-51
2023/05/11 09:37:17;;;;;;;4.25;2.70;;;;;;;;;;5054090;28;20621;-54
2023/05/11 09:39:43;;;;;;;3.45;2.63;;;;;;;;;;5047819;28;20314;-55
2023/05/11 09:42:13;;;;;;;3.00;2.80;;;;;;;;;;5055532;28;20236;-51
2023/05/11 09:44:40;;;;;;;3.13;2.67;;;;;;;;;;5059058;28;20313;-52
2023/05/11 09:47:11;;;;;;;2.60;2.45;;;;;;;;;;5052422;28;20227;-52
2023/05/11 09:49:39;;;;;;;3.97;3.05;;;;;;;;;;5052648;28;20239;-52
2023/05/11 09:52:06;;;;;;;6.53;3.13;;;;;;;;;;5057065;28;20246;-51
2023/05/11 09:54:40;;;;;;;2.88;2.47;;;;;;;;;;5043301;28;20239;-50
2023/05/11 09:57:07;;;;;;;5.35;2.55;;;;;;;;;;5044717;28;20318;-51
2023/05/11 09:59:37;;;;;;;2.38;2.00;;;;;;;;;;5052259;28;20281;-52
2023/05/11 10:02:15;;;;;;;3.22;2.17;;;;;;;;;;5056308;28;20229;-52
2023/05/11 10:04:43;;;;;;;3.45;2.85;;;;;;;;;;5053390;28;20235;-52
2023/05/11 10:07:10;;;;;;;2.53;2.33;;;;;;;;;;5051686;28;20336;-51
2023/05/11 10:09:37;;;;;;;4.85;2.42;;;;;;;;;;5056413;28;20235;-52
2023/05/11 10:12:05;;;;;;;2.78;2.58;;;;;;;;;;5051986;28;20282;-51
2023/05/11 10:14:32;;;;;;;2.80;2.30;;;;;;;;;;5058632;28;20245;-52
2023/05/11 10:16:58;;;;;;;2.42;2.20;;;;;;;;;;5055339;28;20245;-51
2023/05/11 10:19:24;;;;;;;4.80;3.30;;;;;;;;;;5049905;28;20243;-50
2023/05/11 10:21:52;;;;;;;2.90;2.70;;;;;;;;;;5057273;28;20235;-50
2023/05/11 10:24:19;;;;;;;3.50;2.92;;;;;;;;;;5053921;28;20736;-50
2023/05/11 10:26:45;;;;;;;3.25;1.95;;;;;;;;;;5047657;28;20235;-54
2023/05/11 10:29:13;;;;;;;4.03;2.47;;;;;;;;;;5056614;28;20281;-52
2023/05/11 10:31:40;;;;;;;2.80;2.60;;;;;;;;;;5068694;28;20245;-51
2023/05/11 10:34:06;;;;;;;2.20;2.00;;;;;;;;;;5055710;28;20224;-52
2023/05/11 10:36:33;;;;;;;2.38;2.10;;;;;;;;;;5046990;28;20227;-51
2023/05/11 10:39:01;;;;;;;3.35;2.40;;;;;;;;;;5050014;28;21004;-51
2023/05/11 10:41:32;;;;;;;5.53;2.38;;;;;;;;;;5054033;28;20728;-50
2023/05/11 10:44:13;;;;;;;3.13;2.50;;;;;;;;;;5047859;28;20346;-51
2023/05/11 10:46:46;;;;;;;2.15;1.98;;;;;;;;;;5051569;28;20321;-50
2023/05/11 10:49:28;;;;;;;10.25;3.75;;;;;;;;;;5061286;28;20310;-52
2023/05/11 10:52:04;;;;;;;2.42;2.10;;;;;;;;;;5056525;28;20223;-51
2023/05/11 10:54:39;;;;;;;3.10;2.05;;;;;;;;;;5058423;28;20323;-52
2023/05/11 10:57:13;;;;;;;3.55;2.00;;;;;;;;;;5079080;28;20233;-52
2023/05/11 11:00:08;;;;;;;2.00;1.90;;;;;;;;;;5063906;28;20242;-51
2023/05/11 11:02:34;;;;;;;2.90;1.95;;;;;;;;;;5063215;28;20228;-50
2023/05/11 11:05:04;;;;;;;2.45;2.22;;;;;;;;;;5061246;28;20253;-52
2023/05/11 11:07:30;;;;;;;2.55;2.28;;;;;;;;;;5062276;28;20323;-54
2023/05/11 11:10:00;;;;;;;4.15;2.20;;;;;;;;;;5068067;28;20251;-51
2023/05/11 11:12:28;;;;;;;2.55;2.05;;;;;;;;;;5068303;28;20711;-53
2023/05/11 11:14:55;;;;;;;3.35;2.00;;;;;;;;;;5057780;28;20228;-50
2023/05/11 11:17:23;;;;;;;2.50;2.25;;;;;;;;;;5065739;28;20266;-52
2023/05/11 11:19:49;;;;;;;2.38;2.17;;;;;;;;;;5071463;28;20307;-50
2023/05/11 11:22:34;;;;;;;3.95;2.50;;;;;;;;;;5071572;28;20227;-52
2023/05/11 11:25:03;;;;;;;2.10;1.98;;;;;;;;;;5070766;28;20254;-53
2023/05/11 11:27:45;;;;;;;4.28;2.28;;;;;;;;;;5069129;28;20228;-52
2023/05/11 11:30:18;;;;;;;6.50;2.42;;;;;;;;;;5071530;28;20255;-52
2023/05/11 11:32:44;;;;;;;2.78;2.17;;;;;;;;;;5063813;28;20331;-50
2023/05/11 11:35:26;;;;;;;2.38;2.17;;;;;;;;;;5067640;28;20247;-54
2023/05/11 11:38:02;;;;;;;2.95;2.30;;;;;;;;;;5066747;28;20259;-53
2023/05/11 11:40:36;;;;;;;4.88;2.72;;;;;;;;;;5066984;28;20693;-51
2023/05/11 11:43:10;;;;;;;2.58;2.38;;;;;;;;;;5057762;28;20235;-55
2023/05/11 11:45:38;;;;;;;2.00;1.90;;;;;;;;;;5060070;28;20235;-51
2023/05/11 11:48:12;;;;;;;3.17;2.40;;;;;;;;;;5055996;28;20242;-51
2023/05/11 11:50:42;;;;;;;2.55;2.28;;;;;;;;;;5053773;28;20765;-52
2023/05/11 11:53:12;;;;;;;2.50;2.35;;;;;;;;;;5047103;28;20240;-52
2023/05/11 11:55:50;;;;;;;2.28;1.90;;;;;;;;;;5044049;28;20246;-51
2023/05/11 11:58:35;;;;;;;4.50;2.35;;;;;;;;;;5063395;28;20227;-51
2023/05/11 12:01:02;;;;;;;2.28;2.08;;;;;;;;;;5053498;27;20232;-51
2023/05/11 12:03:28;;;;;;;2.60;2.40;;;;;;;;;;5058947;27;20246;-56
2023/05/11 12:05:56;;;;;;;2.45;2.17;;;;;;;;;;5056133;28;20228;-52
2023/05/11 12:08:23;;;;;;;2.35;2.15;;;;;;;;;;5060738;28;20246;-51
2023/05/11 12:10:55;;;;;;;1.77;1.67;;;;;;;;;;5048175;28;20255;-51
2023/05/11 12:13:21;;;;;;;2.50;2.20;;;;;;;;;;5058917;28;20235;-52
2023/05/11 12:15:48;;;;;;;2.63;2.42;;;;;;;;;;5058533;28;20481;-52
2023/05/11 12:18:20;;;;;;;4.55;2.00;;;;;;;;;;5059086;28;20227;-52
2023/05/11 12:20:46;;;;;;;3.08;2.78;;;;;;;;;;5054119;28;20727;-53
2023/05/11 12:23:13;;;;;;;5.10;1.92;;;;;;;;;;5055642;28;20231;-51
2023/05/11 12:25:40;;;;;;;2.78;2.20;;;;;;;;;;5063094;28;20231;-51
2023/05/11 12:28:08;;;;;;;3.50;2.25;;;;;;;;;;5073439;28;20287;-53
2023/05/11 12:30:35;;;;;;;2.58;1.83;;;;;;;;;;5074342;28;20219;-52
2023/05/11 12:33:03;;;;;;;2.10;2.00;;;;;;;;;;5058894;28;20263;-52
2023/05/11 12:35:30;;;;;;;1.75;1.65;;;;;;;;;;5067145;28;20258;-56
2023/05/11 12:37:57;;;;;;;1.60;1.48;;;;;;;;;;5063769;28;20277;-52
2023/05/11 12:40:23;;;;;;;6.25;1.85;;;;;;;;;;5061691;28;20322;-52
2023/05/11 12:42:50;;;;;;;3.33;1.83;;;;;;;;;;5060673;28;20307;-50
2023/05/11 12:45:19;;;;;;;2.80;1.55;;;;;;;;;;5062959;28;20228;-50
2023/05/11 12:47:45;;;;;;;1.70;1.60;;;;;;;;;;5059907;28;20730;-52
2023/05/11 12:50:12;;;;;;;2.65;1.98;;;;;;;;;;5048136;28;20326;-52
2023/05/11 12:52:38;;;;;;;3.95;2.08;;;;;;;;;;5045977;28;20240;-53
2023/05/11 12:55:05;;;;;;;2.13;1.98;;;;;;;;;;5046078;28;20311;-51
2023/05/11 12:57:32;;;;;;;2.13;1.73;;;;;;;;;;5054812;28;20286;-51
2023/05/11 13:00:05;;;;;;;4.22;1.85;;;;;;;;;;5043764;28;20255;-51
2023/05/11 13:02:33;;;;;;;3.10;1.67;;;;;;;;;;5056517;28;20239;-52
2023/05/11 13:05:00;;;;;;;2.25;1.92;;;;;;;;;;5066586;28;20234;-52
2023/05/11 13:07:27;;;;;;;2.08;1.88;;;;;;;;;;5064868;28;20713;-51
2023/05/11 13:09:57;;;;;;;3.03;1.55;;;;;;;;;;5062712;28;20239;-52
2023/05/11 13:12:24;;;;;;;2.92;2.30;;;;;;;;;;5060752;28;20235;-51
2023/05/11 13:15:04;;;;;;;2.63;2.05;;;;;;;;;;5048474;28;20243;-53
2023/05/11 13:17:30;;;;;;;4.25;2.08;;;;;;;;;;5066313;28;20234;-53
2023/05/11 13:20:14;;;;;;;2.83;1.88;;;;;;;;;;5064557;28;20231;-53
2023/05/11 13:22:40;;;;;;;3.65;1.85;;;;;;;;;;5050191;27;20235;-53
2023/05/11 13:25:08;;;;;;;3.17;2.70;;;;;;;;;;5060652;28;20293;-52
2023/05/11 13:27:35;;;;;;;2.75;2.00;;;;;;;;;;5059783;28;20654;-51
2023/05/11 13:30:01;;;;;;;2.20;1.70;;;;;;;;;;5062272;28;20231;-52
2023/05/11 13:32:28;;;;;;;1.55;1.45;;;;;;;;;;5054992;28;20227;-52
2023/05/11 13:34:55;;;;;;;8.07;1.83;;;;;;;;;;5050746;28;20227;-53
2023/05/11 13:37:22;;;;;;;3.88;2.10;;;;;;;;;;5055499;28;20322;-52
2023/05/11 13:39:49;;;;;;;2.67;1.50;;;;;;;;;;5048332;28;25111;-51
2023/05/11 13:42:15;;;;;;;3.45;1.58;;;;;;;;;;5053196;28;20230;-52
2023/05/11 13:44:42;;;;;;;2.03;1.75;;;;;;;;;;5057269;28;20228;-52
2023/05/11 13:47:08;;;;;;;4.18;2.30;;;;;;;;;;5063337;28;20609;-52
2023/05/11 13:49:35;;;;;;;2.92;2.00;;;;;;;;;;5050670;28;20223;-54
2023/05/11 13:52:01;;;;;;;2.40;1.88;;;;;;;;;;5056251;28;20235;-52
2023/05/11 13:54:30;;;;;;;4.03;1.95;;;;;;;;;;5040310;28;20239;-51
2023/05/11 13:56:57;;;;;;;6.05;1.95;;;;;;;;;;5050783;27;20235;-56
2023/05/11 13:59:23;;;;;;;1.55;1.42;;;;;;;;;;5057691;27;20562;-51
2023/05/11 14:01:49;;;;;;;3.17;2.08;;;;;;;;;;5057829;27;20238;-53
2023/05/11 14:04:16;;;;;;;2.50;2.10;;;;;;;;;;5061564;27;20310;-50
2023/05/11 14:06:42;;;;;;;2.10;1.98;;;;;;;;;;5054518;27;20255;-57
2023/05/11 14:09:09;;;;;;;2.97;1.80;;;;;;;;;;5058682;28;20232;-51
2023/05/11 14:11:36;;;;;;;2.55;2.17;;;;;;;;;;5048772;28;20605;-51
2023/05/11 14:14:03;;;;;;;2.28;1.67;;;;;;;;;;5054575;28;20238;-52
2023/05/11 14:16:29;;;;;;;4.13;2.03;;;;;;;;;;5055241;28;20241;-53
2023/05/11 14:18:56;;;;;;;3.08;2.25;;;;;;;;;;5055227;28;20652;-53
2023/05/11 14:21:22;;;;;;;1.83;1.73;;;;;;;;;;5059537;28;20237;-51
2023/05/11 14:23:49;;;;;;;2.17;1.90;;;;;;;;;;5054505;28;20250;-53
2023/05/11 14:26:15;;;;;;;2.92;1.60;;;;;;;;;;5054578;28;20230;-51
2023/05/11 14:28:43;;;;;;;7.07;2.90;;;;;;;;;;5054981;28;20234;-53
2023/05/11 14:31:09;;;;;;;2.50;1.80;;;;;;;;;;5060196;28;20331;-52
2023/05/11 14:33:36;;;;;;;4.78;2.63;;;;;;;;;;5050425;28;20284;-53
2023/05/11 14:36:02;;;;;;;4.55;2.28;;;;;;;;;;5059055;28;20223;-51
2023/05/11 14:38:30;;;;;;;2.55;2.15;;;;;;;;;;5051067;28;20258;-51
2023/05/11 14:40:58;;;;;;;2.20;2.00;;;;;;;;;;5061729;27;20254;-50
2023/05/11 14:43:25;;;;;;;2.30;2.10;;;;;;;;;;5057334;28;20256;-52
2023/05/11 14:45:52;;;;;;;7.22;3.33;;;;;;;;;;5056613;28;20227;-52